Hi Land, Louisiana
Current Conditions -  °F | °C
As of 9:55 PM on Wednesday 22 Oct 2014 (Local Time) from KNBG Reporting Station
Clear Clear  
Wind Chill: 58°   Ceiling: Unl
Heat Index: 58°   Visibility: 10mi
Dew Point: 54°   Wind: 3mph
Humidity: 87%   Direction: 20°NNE
Pressure: 30.07"   Gusts: NA
Location:  29.912°N, 89.8759°W
Report Text: KNBG 230255Z 02003KT 10SM CLR 14/12 A3007 RMK AO2 SLP182 T01440122 53014 $
Loading
Personal Weather Stations






























Interactive Weather Map
Tropical Storm Tracking
New forecast layout! Learn more

10-Day Weather Forecast

Advertisements
Track Severe Weather on mobile